sensor_id;sensor_type;location;lat;lon;timestamp;P1;durP1;ratioP1;P2;durP2;ratioP2
67191;SDS011;54120;53.504;49.426;2023-05-07T00:02:13;6.80;;;3.70;;
67191;SDS011;54120;53.504;49.426;2023-05-07T00:04:40;3.67;;;3.35;;
67191;SDS011;54120;53.504;49.426;2023-05-07T00:07:08;4.43;;;3.50;;
67191;SDS011;54120;53.504;49.426;2023-05-07T00:09:36;4.15;;;3.65;;
67191;SDS011;54120;53.504;49.426;2023-05-07T00:12:03;6.75;;;3.20;;
67191;SDS011;54120;53.504;49.426;2023-05-07T00:14:31;5.43;;;3.30;;
67191;SDS011;54120;53.504;49.426;2023-05-07T00:19:58;5.90;;;3.72;;
67191;SDS011;54120;53.504;49.426;2023-05-07T00:22:33;6.68;;;3.72;;
67191;SDS011;54120;53.504;49.426;2023-05-07T00:25:08;4.07;;;3.67;;
67191;SDS011;54120;53.504;49.426;2023-05-07T00:27:37;6.15;;;3.63;;
67191;SDS011;54120;53.504;49.426;2023-05-07T00:30:07;5.28;;;3.70;;
67191;SDS011;54120;53.504;49.426;2023-05-07T00:32:40;7.65;;;3.75;;
67191;SDS011;54120;53.504;49.426;2023-05-07T00:35:15;4.70;;;3.83;;
67191;SDS011;54120;53.504;49.426;2023-05-07T00:37:48;5.95;;;3.70;;
67191;SDS011;54120;53.504;49.426;2023-05-07T00:40:18;6.43;;;3.83;;
67191;SDS011;54120;53.504;49.426;2023-05-07T00:42:51;5.13;;;3.25;;
67191;SDS011;54120;53.504;49.426;2023-05-07T00:45:29;4.45;;;3.50;;
67191;SDS011;54120;53.504;49.426;2023-05-07T00:47:59;4.03;;;3.28;;
67191;SDS011;54120;53.504;49.426;2023-05-07T00:50:27;6.97;;;3.35;;
67191;SDS011;54120;53.504;49.426;2023-05-07T00:58:56;4.43;;;3.47;;
67191;SDS011;54120;53.504;49.426;2023-05-07T01:01:31;6.03;;;3.28;;
67191;SDS011;54120;53.504;49.426;2023-05-07T01:03:58;4.75;;;3.50;;
67191;SDS011;54120;53.504;49.426;2023-05-07T01:06:24;3.78;;;3.10;;
67191;SDS011;54120;53.504;49.426;2023-05-07T01:08:53;4.97;;;3.00;;
67191;SDS011;54120;53.504;49.426;2023-05-07T01:26:16;6.93;;;4.25;;
67191;SDS011;54120;53.504;49.426;2023-05-07T01:28:48;4.75;;;3.58;;
67191;SDS011;54120;53.504;49.426;2023-05-07T01:40:02;4.38;;;3.97;;
67191;SDS011;54120;53.504;49.426;2023-05-07T01:51:52;5.82;;;3.42;;
67191;SDS011;54120;53.504;49.426;2023-05-07T01:54:19;8.48;;;3.42;;
67191;SDS011;54120;53.504;49.426;2023-05-07T01:56:53;6.35;;;2.92;;
67191;SDS011;54120;53.504;49.426;2023-05-07T02:02:08;9.98;;;3.38;;
67191;SDS011;54120;53.504;49.426;2023-05-07T02:04:34;5.78;;;3.15;;
67191;SDS011;54120;53.504;49.426;2023-05-07T02:07:00;3.53;;;2.67;;
67191;SDS011;54120;53.504;49.426;2023-05-07T02:09:26;3.33;;;2.80;;
67191;SDS011;54120;53.504;49.426;2023-05-07T02:11:52;5.00;;;2.60;;
67191;SDS011;54120;53.504;49.426;2023-05-07T02:14:18;5.43;;;2.40;;
67191;SDS011;54120;53.504;49.426;2023-05-07T02:16:45;10.57;;;2.67;;
67191;SDS011;54120;53.504;49.426;2023-05-07T02:19:12;4.10;;;2.50;;
67191;SDS011;54120;53.504;49.426;2023-05-07T02:21:38;2.90;;;2.00;;
67191;SDS011;54120;53.504;49.426;2023-05-07T02:24:04;4.22;;;2.30;;
67191;SDS011;54120;53.504;49.426;2023-05-07T02:26:30;5.00;;;2.33;;
67191;SDS011;54120;53.504;49.426;2023-05-07T02:28:56;3.25;;;2.40;;
67191;SDS011;54120;53.504;49.426;2023-05-07T02:31:26;3.47;;;2.30;;
67191;SDS011;54120;53.504;49.426;2023-05-07T02:33:52;4.70;;;2.40;;
67191;SDS011;54120;53.504;49.426;2023-05-07T02:36:18;14.73;;;2.95;;
67191;SDS011;54120;53.504;49.426;2023-05-07T02:38:44;1.83;;;1.73;;
67191;SDS011;54120;53.504;49.426;2023-05-07T02:41:10;7.38;;;2.38;;
67191;SDS011;54120;53.504;49.426;2023-05-07T02:43:36;2.80;;;1.95;;
67191;SDS011;54120;53.504;49.426;2023-05-07T02:46:03;2.20;;;2.00;;
67191;SDS011;54120;53.504;49.426;2023-05-07T02:48:30;2.05;;;1.88;;
67191;SDS011;54120;53.504;49.426;2023-05-07T02:50:56;3.45;;;2.00;;
67191;SDS011;54120;53.504;49.426;2023-05-07T02:53:23;3.33;;;1.75;;
67191;SDS011;54120;53.504;49.426;2023-05-07T02:55:58;2.33;;;1.90;;
67191;SDS011;54120;53.504;49.426;2023-05-07T02:58:25;2.10;;;1.75;;
67191;SDS011;54120;53.504;49.426;2023-05-07T03:00:51;2.75;;;1.80;;
67191;SDS011;54120;53.504;49.426;2023-05-07T03:03:20;2.05;;;1.85;;
67191;SDS011;54120;53.504;49.426;2023-05-07T03:05:46;1.83;;;1.65;;
67191;SDS011;54120;53.504;49.426;2023-05-07T03:08:12;5.55;;;2.03;;
67191;SDS011;54120;53.504;49.426;2023-05-07T03:10:38;2.25;;;1.98;;
67191;SDS011;54120;53.504;49.426;2023-05-07T03:13:04;3.28;;;1.70;;
67191;SDS011;54120;53.504;49.426;2023-05-07T03:15:30;2.10;;;1.73;;
67191;SDS011;54120;53.504;49.426;2023-05-07T03:17:57;2.72;;;1.77;;
67191;SDS011;54120;53.504;49.426;2023-05-07T03:20:23;2.65;;;1.70;;
67191;SDS011;54120;53.504;49.426;2023-05-07T03:22:48;2.35;;;1.83;;
67191;SDS011;54120;53.504;49.426;2023-05-07T03:25:15;3.60;;;1.60;;
67191;SDS011;54120;53.504;49.426;2023-05-07T03:27:41;3.90;;;1.80;;
67191;SDS011;54120;53.504;49.426;2023-05-07T03:30:07;8.27;;;2.38;;
67191;SDS011;54120;53.504;49.426;2023-05-07T03:32:34;2.50;;;1.60;;
67191;SDS011;54120;53.504;49.426;2023-05-07T03:35:01;3.90;;;1.67;;
67191;SDS011;54120;53.504;49.426;2023-05-07T03:37:27;1.80;;;1.70;;
67191;SDS011;54120;53.504;49.426;2023-05-07T03:39:53;5.43;;;1.85;;
67191;SDS011;54120;53.504;49.426;2023-05-07T03:42:19;2.10;;;1.73;;
67191;SDS011;54120;53.504;49.426;2023-05-07T03:44:45;3.20;;;1.60;;
67191;SDS011;54120;53.504;49.426;2023-05-07T03:47:11;8.40;;;1.60;;
67191;SDS011;54120;53.504;49.426;2023-05-07T03:49:38;3.60;;;1.63;;
67191;SDS011;54120;53.504;49.426;2023-05-07T03:52:05;4.82;;;1.60;;
67191;SDS011;54120;53.504;49.426;2023-05-07T03:54:31;3.25;;;1.50;;
67191;SDS011;54120;53.504;49.426;2023-05-07T03:56:58;1.73;;;1.35;;
67191;SDS011;54120;53.504;49.426;2023-05-07T03:59:24;4.88;;;1.73;;
67191;SDS011;54120;53.504;49.426;2023-05-07T04:01:50;2.08;;;1.40;;
67191;SDS011;54120;53.504;49.426;2023-05-07T04:04:16;3.63;;;1.50;;
67191;SDS011;54120;53.504;49.426;2023-05-07T04:06:42;3.22;;;1.40;;
67191;SDS011;54120;53.504;49.426;2023-05-07T04:09:08;2.92;;;1.73;;
67191;SDS011;54120;53.504;49.426;2023-05-07T04:11:35;1.92;;;1.40;;
67191;SDS011;54120;53.504;49.426;2023-05-07T04:14:01;3.38;;;1.40;;
67191;SDS011;54120;53.504;49.426;2023-05-07T04:16:27;1.13;;;1.10;;
67191;SDS011;54120;53.504;49.426;2023-05-07T04:18:54;3.85;;;1.40;;
67191;SDS011;54120;53.504;49.426;2023-05-07T04:21:20;3.17;;;1.25;;
67191;SDS011;54120;53.504;49.426;2023-05-07T04:23:49;1.52;;;1.20;;
67191;SDS011;54120;53.504;49.426;2023-05-07T04:26:15;2.17;;;1.75;;
67191;SDS011;54120;53.504;49.426;2023-05-07T04:28:41;1.17;;;1.08;;
67191;SDS011;54120;53.504;49.426;2023-05-07T04:31:07;1.20;;;1.17;;
67191;SDS011;54120;53.504;49.426;2023-05-07T04:33:34;1.30;;;1.20;;
67191;SDS011;54120;53.504;49.426;2023-05-07T04:36:03;1.70;;;1.20;;
67191;SDS011;54120;53.504;49.426;2023-05-07T04:38:30;2.58;;;1.23;;
67191;SDS011;54120;53.504;49.426;2023-05-07T04:40:57;2.72;;;1.23;;
67191;SDS011;54120;53.504;49.426;2023-05-07T04:43:28;7.05;;;1.20;;
67191;SDS011;54120;53.504;49.426;2023-05-07T04:45:54;5.32;;;1.45;;
67191;SDS011;54120;53.504;49.426;2023-05-07T04:48:20;2.78;;;1.20;;
67191;SDS011;54120;53.504;49.426;2023-05-07T04:50:49;1.90;;;1.30;;
67191;SDS011;54120;53.504;49.426;2023-05-07T04:53:16;1.90;;;1.05;;
67191;SDS011;54120;53.504;49.426;2023-05-07T04:55:43;2.95;;;1.20;;
67191;SDS011;54120;53.504;49.426;2023-05-07T04:58:10;1.58;;;1.08;;
67191;SDS011;54120;53.504;49.426;2023-05-07T05:00:38;5.53;;;1.15;;
67191;SDS011;54120;53.504;49.426;2023-05-07T05:03:05;4.38;;;1.45;;
67191;SDS011;54120;53.504;49.426;2023-05-07T05:05:32;2.45;;;1.27;;
67191;SDS011;54120;53.504;49.426;2023-05-07T05:07:58;2.88;;;1.50;;
67191;SDS011;54120;53.504;49.426;2023-05-07T05:10:24;1.63;;;1.30;;
67191;SDS011;54120;53.504;49.426;2023-05-07T05:12:51;1.40;;;1.30;;
67191;SDS011;54120;53.504;49.426;2023-05-07T05:15:17;3.28;;;1.50;;
67191;SDS011;54120;53.504;49.426;2023-05-07T05:17:43;1.85;;;1.15;;
67191;SDS011;54120;53.504;49.426;2023-05-07T05:20:09;1.88;;;1.33;;
67191;SDS011;54120;53.504;49.426;2023-05-07T05:22:37;1.77;;;1.20;;
67191;SDS011;54120;53.504;49.426;2023-05-07T05:25:03;1.30;;;1.20;;
67191;SDS011;54120;53.504;49.426;2023-05-07T05:27:29;1.98;;;1.10;;
67191;SDS011;54120;53.504;49.426;2023-05-07T05:29:55;2.40;;;1.10;;
67191;SDS011;54120;53.504;49.426;2023-05-07T05:32:21;2.05;;;1.00;;
67191;SDS011;54120;53.504;49.426;2023-05-07T05:34:47;2.30;;;1.20;;
67191;SDS011;54120;53.504;49.426;2023-05-07T05:37:13;1.52;;;1.10;;
67191;SDS011;54120;53.504;49.426;2023-05-07T05:39:39;2.90;;;1.20;;
67191;SDS011;54120;53.504;49.426;2023-05-07T05:42:05;2.03;;;1.10;;
67191;SDS011;54120;53.504;49.426;2023-05-07T05:44:31;3.33;;;1.17;;
67191;SDS011;54120;53.504;49.426;2023-05-07T05:46:57;1.25;;;1.13;;
67191;SDS011;54120;53.504;49.426;2023-05-07T05:49:24;1.08;;;1.08;;
67191;SDS011;54120;53.504;49.426;2023-05-07T05:51:51;4.18;;;1.30;;
67191;SDS011;54120;53.504;49.426;2023-05-07T05:54:17;1.98;;;1.23;;
67191;SDS011;54120;53.504;49.426;2023-05-07T05:56:43;1.38;;;1.20;;
67191;SDS011;54120;53.504;49.426;2023-05-07T05:59:09;1.00;;;1.00;;
67191;SDS011;54120;53.504;49.426;2023-05-07T06:01:36;2.08;;;1.50;;
67191;SDS011;54120;53.504;49.426;2023-05-07T06:04:02;2.38;;;1.05;;
67191;SDS011;54120;53.504;49.426;2023-05-07T06:06:28;4.20;;;1.08;;
67191;SDS011;54120;53.504;49.426;2023-05-07T06:08:54;1.30;;;1.00;;
67191;SDS011;54120;53.504;49.426;2023-05-07T06:11:20;3.60;;;1.30;;
67191;SDS011;54120;53.504;49.426;2023-05-07T06:13:46;3.28;;;1.23;;
67191;SDS011;54120;53.504;49.426;2023-05-07T06:16:12;1.70;;;1.60;;
67191;SDS011;54120;53.504;49.426;2023-05-07T06:18:39;1.30;;;1.20;;
67191;SDS011;54120;53.504;49.426;2023-05-07T06:23:43;4.22;;;1.10;;
67191;SDS011;54120;53.504;49.426;2023-05-07T06:26:10;3.10;;;1.10;;
67191;SDS011;54120;53.504;49.426;2023-05-07T06:39:54;2.92;;;0.95;;
67191;SDS011;54120;53.504;49.426;2023-05-07T06:42:20;1.35;;;1.25;;
67191;SDS011;54120;53.504;49.426;2023-05-07T06:44:46;1.55;;;1.45;;
67191;SDS011;54120;53.504;49.426;2023-05-07T06:47:12;2.35;;;1.08;;
67191;SDS011;54120;53.504;49.426;2023-05-07T06:49:38;1.98;;;1.08;;
67191;SDS011;54120;53.504;49.426;2023-05-07T06:52:04;2.40;;;1.20;;
67191;SDS011;54120;53.504;49.426;2023-05-07T06:54:30;1.33;;;1.23;;
67191;SDS011;54120;53.504;49.426;2023-05-07T06:56:56;7.82;;;1.30;;
67191;SDS011;54120;53.504;49.426;2023-05-07T06:59:23;1.38;;;0.90;;
67191;SDS011;54120;53.504;49.426;2023-05-07T07:01:49;2.17;;;1.10;;
67191;SDS011;54120;53.504;49.426;2023-05-07T07:04:15;1.95;;;1.00;;
67191;SDS011;54120;53.504;49.426;2023-05-07T07:06:42;1.38;;;1.20;;
67191;SDS011;54120;53.504;49.426;2023-05-07T07:09:08;1.08;;;0.90;;
67191;SDS011;54120;53.504;49.426;2023-05-07T07:11:34;5.43;;;1.00;;
67191;SDS011;54120;53.504;49.426;2023-05-07T07:14:00;1.85;;;1.00;;
67191;SDS011;54120;53.504;49.426;2023-05-07T07:16:26;1.58;;;1.10;;
67191;SDS011;54120;53.504;49.426;2023-05-07T07:18:52;1.05;;;0.90;;
67191;SDS011;54120;53.504;49.426;2023-05-07T07:21:18;3.88;;;1.08;;
67191;SDS011;54120;53.504;49.426;2023-05-07T07:23:45;1.67;;;1.08;;
67191;SDS011;54120;53.504;49.426;2023-05-07T07:26:11;3.40;;;1.10;;
67191;SDS011;54120;53.504;49.426;2023-05-07T07:28:43;7.72;;;1.00;;
67191;SDS011;54120;53.504;49.426;2023-05-07T07:31:12;1.65;;;1.02;;
67191;SDS011;54120;53.504;49.426;2023-05-07T07:33:39;1.00;;;1.00;;
67191;SDS011;54120;53.504;49.426;2023-05-07T07:36:05;1.25;;;1.10;;
67191;SDS011;54120;53.504;49.426;2023-05-07T07:38:32;4.65;;;1.42;;
67191;SDS011;54120;53.504;49.426;2023-05-07T07:40:58;1.75;;;0.80;;
67191;SDS011;54120;53.504;49.426;2023-05-07T07:43:26;1.42;;;1.10;;
67191;SDS011;54120;53.504;49.426;2023-05-07T07:45:52;4.60;;;1.15;;
67191;SDS011;54120;53.504;49.426;2023-05-07T07:48:18;1.42;;;1.20;;
67191;SDS011;54120;53.504;49.426;2023-05-07T07:50:48;1.88;;;1.20;;
67191;SDS011;54120;53.504;49.426;2023-05-07T07:53:15;2.53;;;1.20;;
67191;SDS011;54120;53.504;49.426;2023-05-07T07:55:42;1.40;;;1.30;;
67191;SDS011;54120;53.504;49.426;2023-05-07T08:03:58;2.15;;;1.17;;
67191;SDS011;54120;53.504;49.426;2023-05-07T08:12:50;4.87;;;1.53;;
67191;SDS011;54120;53.504;49.426;2023-05-07T08:18:07;3.53;;;1.33;;
67191;SDS011;54120;53.504;49.426;2023-05-07T08:20:33;5.15;;;1.40;;
67191;SDS011;54120;53.504;49.426;2023-05-07T08:23:04;2.15;;;1.30;;
67191;SDS011;54120;53.504;49.426;2023-05-07T08:25:33;3.03;;;1.20;;
67191;SDS011;54120;53.504;49.426;2023-05-07T08:27:59;3.97;;;1.20;;
67191;SDS011;54120;53.504;49.426;2023-05-07T08:30:26;2.15;;;1.30;;
67191;SDS011;54120;53.504;49.426;2023-05-07T08:32:52;3.13;;;1.27;;
67191;SDS011;54120;53.504;49.426;2023-05-07T08:35:18;2.30;;;1.20;;
67191;SDS011;54120;53.504;49.426;2023-05-07T08:37:44;2.17;;;1.27;;
67191;SDS011;54120;53.504;49.426;2023-05-07T08:40:10;2.03;;;1.10;;
67191;SDS011;54120;53.504;49.426;2023-05-07T08:42:36;2.30;;;1.15;;
67191;SDS011;54120;53.504;49.426;2023-05-07T08:45:03;2.90;;;1.10;;
67191;SDS011;54120;53.504;49.426;2023-05-07T08:47:35;1.23;;;1.20;;
67191;SDS011;54120;53.504;49.426;2023-05-07T08:50:17;4.18;;;1.48;;
67191;SDS011;54120;53.504;49.426;2023-05-07T08:52:46;2.83;;;1.30;;
67191;SDS011;54120;53.504;49.426;2023-05-07T08:55:13;3.60;;;1.25;;
67191;SDS011;54120;53.504;49.426;2023-05-07T08:57:39;1.50;;;1.10;;
67191;SDS011;54120;53.504;49.426;2023-05-07T09:00:06;1.80;;;1.20;;
67191;SDS011;54120;53.504;49.426;2023-05-07T09:02:35;1.92;;;1.33;;
67191;SDS011;54120;53.504;49.426;2023-05-07T09:05:01;1.52;;;1.20;;
67191;SDS011;54120;53.504;49.426;2023-05-07T09:07:28;3.75;;;1.60;;
67191;SDS011;54120;53.504;49.426;2023-05-07T09:09:55;3.67;;;1.15;;
67191;SDS011;54120;53.504;49.426;2023-05-07T09:12:22;2.15;;;1.30;;
67191;SDS011;54120;53.504;49.426;2023-05-07T09:14:49;2.40;;;1.10;;
67191;SDS011;54120;53.504;49.426;2023-05-07T09:17:15;1.33;;;1.23;;
67191;SDS011;54120;53.504;49.426;2023-05-07T09:19:45;2.67;;;1.50;;
67191;SDS011;54120;53.504;49.426;2023-05-07T09:22:11;2.65;;;1.50;;
67191;SDS011;54120;53.504;49.426;2023-05-07T09:24:37;2.28;;;1.60;;
67191;SDS011;54120;53.504;49.426;2023-05-07T09:27:04;1.65;;;1.50;;
67191;SDS011;54120;53.504;49.426;2023-05-07T09:29:31;2.03;;;1.67;;
67191;SDS011;54120;53.504;49.426;2023-05-07T09:32:03;4.13;;;1.75;;
67191;SDS011;54120;53.504;49.426;2023-05-07T09:34:32;2.88;;;1.40;;
67191;SDS011;54120;53.504;49.426;2023-05-07T09:36:58;5.85;;;1.50;;
67191;SDS011;54120;53.504;49.426;2023-05-07T09:39:26;2.53;;;1.67;;
67191;SDS011;54120;53.504;49.426;2023-05-07T09:42:03;2.05;;;1.60;;
67191;SDS011;54120;53.504;49.426;2023-05-07T09:44:31;4.30;;;2.00;;
67191;SDS011;54120;53.504;49.426;2023-05-07T09:46:57;2.20;;;1.60;;
67191;SDS011;54120;53.504;49.426;2023-05-07T09:49:25;7.97;;;1.95;;
67191;SDS011;54120;53.504;49.426;2023-05-07T09:51:59;3.70;;;1.90;;
67191;SDS011;54120;53.504;49.426;2023-05-07T09:54:26;5.13;;;1.70;;
67191;SDS011;54120;53.504;49.426;2023-05-07T09:57:04;2.47;;;1.65;;
67191;SDS011;54120;53.504;49.426;2023-05-07T09:59:32;1.98;;;1.70;;
67191;SDS011;54120;53.504;49.426;2023-05-07T10:02:00;2.90;;;1.77;;
67191;SDS011;54120;53.504;49.426;2023-05-07T10:04:28;2.92;;;1.55;;
67191;SDS011;54120;53.504;49.426;2023-05-07T10:06:56;2.53;;;1.58;;
67191;SDS011;54120;53.504;49.426;2023-05-07T10:09:22;1.77;;;1.48;;
67191;SDS011;54120;53.504;49.426;2023-05-07T10:11:49;4.10;;;1.40;;
67191;SDS011;54120;53.504;49.426;2023-05-07T10:14:19;3.30;;;1.50;;
67191;SDS011;54120;53.504;49.426;2023-05-07T10:16:47;1.67;;;1.40;;
67191;SDS011;54120;53.504;49.426;2023-05-07T10:19:14;2.75;;;1.70;;
67191;SDS011;54120;53.504;49.426;2023-05-07T10:21:44;3.72;;;2.00;;
67191;SDS011;54120;53.504;49.426;2023-05-07T10:24:20;1.95;;;1.60;;
67191;SDS011;54120;53.504;49.426;2023-05-07T10:26:50;4.47;;;1.58;;
67191;SDS011;54120;53.504;49.426;2023-05-07T10:29:18;3.13;;;1.30;;
67191;SDS011;54120;53.504;49.426;2023-05-07T10:31:55;1.75;;;1.60;;
67191;SDS011;54120;53.504;49.426;2023-05-07T10:34:40;4.82;;;1.50;;
67191;SDS011;54120;53.504;49.426;2023-05-07T10:37:09;1.60;;;1.50;;
67191;SDS011;54120;53.504;49.426;2023-05-07T10:39:35;3.78;;;1.40;;
67191;SDS011;54120;53.504;49.426;2023-05-07T10:42:11;2.60;;;1.50;;
67191;SDS011;54120;53.504;49.426;2023-05-07T10:44:38;3.33;;;1.60;;
67191;SDS011;54120;53.504;49.426;2023-05-07T10:47:11;2.17;;;1.58;;
67191;SDS011;54120;53.504;49.426;2023-05-07T10:52:14;2.92;;;1.65;;
67191;SDS011;54120;53.504;49.426;2023-05-07T10:54:46;4.45;;;1.60;;
67191;SDS011;54120;53.504;49.426;2023-05-07T10:59:56;2.53;;;1.65;;
67191;SDS011;54120;53.504;49.426;2023-05-07T11:02:22;1.40;;;1.30;;
67191;SDS011;54120;53.504;49.426;2023-05-07T11:07:55;2.72;;;1.42;;
67191;SDS011;54120;53.504;49.426;2023-05-07T11:13:17;3.58;;;1.50;;
67191;SDS011;54120;53.504;49.426;2023-05-07T11:15:48;1.80;;;1.70;;
67191;SDS011;54120;53.504;49.426;2023-05-07T11:18:15;2.75;;;1.52;;
67191;SDS011;54120;53.504;49.426;2023-05-07T11:20:45;2.30;;;1.40;;
67191;SDS011;54120;53.504;49.426;2023-05-07T11:28:41;2.53;;;1.60;;
67191;SDS011;54120;53.504;49.426;2023-05-07T11:31:22;1.70;;;1.60;;
67191;SDS011;54120;53.504;49.426;2023-05-07T11:33:51;3.53;;;1.55;;
67191;SDS011;54120;53.504;49.426;2023-05-07T11:39:00;2.55;;;1.60;;
67191;SDS011;54120;53.504;49.426;2023-05-07T11:41:36;1.88;;;1.50;;
67191;SDS011;54120;53.504;49.426;2023-05-07T11:47:08;1.85;;;1.55;;
67191;SDS011;54120;53.504;49.426;2023-05-07T11:52:12;5.90;;;1.83;;
67191;SDS011;54120;53.504;49.426;2023-05-07T11:54:39;2.17;;;1.70;;
67191;SDS011;54120;53.504;49.426;2023-05-07T11:57:05;2.83;;;1.40;;
67191;SDS011;54120;53.504;49.426;2023-05-07T11:59:41;1.65;;;1.42;;
67191;SDS011;54120;53.504;49.426;2023-05-07T12:02:14;2.35;;;1.50;;
67191;SDS011;54120;53.504;49.426;2023-05-07T12:04:41;8.65;;;1.98;;
67191;SDS011;54120;53.504;49.426;2023-05-07T12:07:14;3.92;;;1.75;;
67191;SDS011;54120;53.504;49.426;2023-05-07T12:09:41;4.93;;;3.08;;
67191;SDS011;54120;53.504;49.426;2023-05-07T12:14:44;3.22;;;1.40;;
67191;SDS011;54120;53.504;49.426;2023-05-07T12:20:10;1.67;;;1.50;;
67191;SDS011;54120;53.504;49.426;2023-05-07T12:22:45;3.00;;;1.30;;
67191;SDS011;54120;53.504;49.426;2023-05-07T12:25:20;1.60;;;1.50;;
67191;SDS011;54120;53.504;49.426;2023-05-07T12:33:34;2.55;;;1.70;;
67191;SDS011;54120;53.504;49.426;2023-05-07T12:39:07;2.88;;;1.65;;
67191;SDS011;54120;53.504;49.426;2023-05-07T12:41:56;5.07;;;3.95;;
67191;SDS011;54120;53.504;49.426;2023-05-07T12:44:34;1.42;;;1.33;;
67191;SDS011;54120;53.504;49.426;2023-05-07T12:47:01;2.73;;;1.80;;
67191;SDS011;54120;53.504;49.426;2023-05-07T12:49:36;2.92;;;1.52;;
67191;SDS011;54120;53.504;49.426;2023-05-07T12:55:56;1.90;;;1.13;;
67191;SDS011;54120;53.504;49.426;2023-05-07T12:58:26;2.35;;;1.60;;
67191;SDS011;54120;53.504;49.426;2023-05-07T13:13:54;2.13;;;1.25;;
67191;SDS011;54120;53.504;49.426;2023-05-07T13:16:20;1.60;;;1.50;;
67191;SDS011;54120;53.504;49.426;2023-05-07T13:21:41;4.47;;;1.75;;
67191;SDS011;54120;53.504;49.426;2023-05-07T13:24:07;1.65;;;1.25;;
67191;SDS011;54120;53.504;49.426;2023-05-07T13:26:35;2.53;;;2.10;;
67191;SDS011;54120;53.504;49.426;2023-05-07T13:29:01;2.72;;;2.38;;
67191;SDS011;54120;53.504;49.426;2023-05-07T13:31:27;2.25;;;1.50;;
67191;SDS011;54120;53.504;49.426;2023-05-07T13:33:53;3.08;;;1.85;;
67191;SDS011;54120;53.504;49.426;2023-05-07T13:39:21;2.10;;;1.23;;
67191;SDS011;54120;53.504;49.426;2023-05-07T13:41:54;9.90;;;1.70;;
67191;SDS011;54120;53.504;49.426;2023-05-07T13:44:22;7.50;;;5.43;;
67191;SDS011;54120;53.504;49.426;2023-05-07T13:46:48;2.65;;;2.20;;
67191;SDS011;54120;53.504;49.426;2023-05-07T13:49:14;2.22;;;1.88;;
67191;SDS011;54120;53.504;49.426;2023-05-07T13:51:44;2.25;;;1.60;;
67191;SDS011;54120;53.504;49.426;2023-05-07T13:54:18;2.45;;;1.95;;
67191;SDS011;54120;53.504;49.426;2023-05-07T13:56:44;6.82;;;2.45;;
67191;SDS011;54120;53.504;49.426;2023-05-07T14:02:08;2.30;;;1.20;;
67191;SDS011;54120;53.504;49.426;2023-05-07T14:04:35;5.30;;;1.70;;
67191;SDS011;54120;53.504;49.426;2023-05-07T14:07:04;2.25;;;1.60;;
67191;SDS011;54120;53.504;49.426;2023-05-07T14:09:32;4.57;;;1.90;;
67191;SDS011;54120;53.504;49.426;2023-05-07T14:14:46;2.40;;;2.20;;
67191;SDS011;54120;53.504;49.426;2023-05-07T14:23:19;2.97;;;2.33;;
67191;SDS011;54120;53.504;49.426;2023-05-07T14:25:57;4.03;;;2.00;;
67191;SDS011;54120;53.504;49.426;2023-05-07T14:28:27;2.35;;;2.10;;
67191;SDS011;54120;53.504;49.426;2023-05-07T14:31:00;2.92;;;2.00;;
67191;SDS011;54120;53.504;49.426;2023-05-07T14:33:34;3.75;;;2.10;;
67191;SDS011;54120;53.504;49.426;2023-05-07T14:36:04;4.00;;;1.65;;
67191;SDS011;54120;53.504;49.426;2023-05-07T14:45:28;3.67;;;2.03;;
67191;SDS011;54120;53.504;49.426;2023-05-07T14:47:56;2.10;;;1.90;;
67191;SDS011;54120;53.504;49.426;2023-05-07T14:50:26;7.63;;;2.25;;
67191;SDS011;54120;53.504;49.426;2023-05-07T14:55:47;5.15;;;2.40;;
67191;SDS011;54120;53.504;49.426;2023-05-07T14:58:17;3.80;;;2.25;;
67191;SDS011;54120;53.504;49.426;2023-05-07T15:00:47;3.28;;;2.17;;
67191;SDS011;54120;53.504;49.426;2023-05-07T15:09:30;3.22;;;1.90;;
67191;SDS011;54120;53.504;49.426;2023-05-07T15:11:56;2.40;;;1.88;;
67191;SDS011;54120;53.504;49.426;2023-05-07T15:17:42;3.97;;;2.20;;
67191;SDS011;54120;53.504;49.426;2023-05-07T15:23:16;2.83;;;1.80;;
67191;SDS011;54120;53.504;49.426;2023-05-07T15:25:42;2.97;;;2.28;;
67191;SDS011;54120;53.504;49.426;2023-05-07T15:33:59;3.55;;;2.65;;
67191;SDS011;54120;53.504;49.426;2023-05-07T15:36:27;6.32;;;2.75;;
67191;SDS011;54120;53.504;49.426;2023-05-07T15:41:59;7.05;;;3.17;;
67191;SDS011;54120;53.504;49.426;2023-05-07T15:44:35;5.43;;;3.20;;
67191;SDS011;54120;53.504;49.426;2023-05-07T15:47:10;2.72;;;2.30;;
67191;SDS011;54120;53.504;49.426;2023-05-07T15:49:42;5.22;;;2.10;;
67191;SDS011;54120;53.504;49.426;2023-05-07T15:52:12;4.45;;;2.17;;
67191;SDS011;54120;53.504;49.426;2023-05-07T15:57:51;5.18;;;2.65;;
67191;SDS011;54120;53.504;49.426;2023-05-07T16:03:43;4.63;;;2.47;;
67191;SDS011;54120;53.504;49.426;2023-05-07T16:09:32;4.78;;;2.38;;
67191;SDS011;54120;53.504;49.426;2023-05-07T16:12:05;2.63;;;2.38;;
67191;SDS011;54120;53.504;49.426;2023-05-07T16:14:32;2.70;;;2.50;;
67191;SDS011;54120;53.504;49.426;2023-05-07T16:16:59;3.25;;;2.38;;
67191;SDS011;54120;53.504;49.426;2023-05-07T16:19:31;2.58;;;2.00;;
67191;SDS011;54120;53.504;49.426;2023-05-07T16:22:05;2.67;;;2.10;;
67191;SDS011;54120;53.504;49.426;2023-05-07T16:30:33;5.68;;;3.00;;
67191;SDS011;54120;53.504;49.426;2023-05-07T16:39:29;3.75;;;3.13;;
67191;SDS011;54120;53.504;49.426;2023-05-07T16:41:57;3.60;;;3.20;;
67191;SDS011;54120;53.504;49.426;2023-05-07T16:47:44;7.90;;;3.33;;
67191;SDS011;54120;53.504;49.426;2023-05-07T16:50:11;7.80;;;3.83;;
67191;SDS011;54120;53.504;49.426;2023-05-07T16:55:41;6.63;;;3.30;;
67191;SDS011;54120;53.504;49.426;2023-05-07T16:58:09;4.82;;;3.38;;
67191;SDS011;54120;53.504;49.426;2023-05-07T17:00:45;5.75;;;3.45;;
67191;SDS011;54120;53.504;49.426;2023-05-07T17:09:44;4.55;;;3.40;;
67191;SDS011;54120;53.504;49.426;2023-05-07T17:15:03;5.55;;;3.38;;
67191;SDS011;54120;53.504;49.426;2023-05-07T17:23:59;11.05;;;4.70;;
67191;SDS011;54120;53.504;49.426;2023-05-07T17:26:34;5.80;;;4.25;;
67191;SDS011;54120;53.504;49.426;2023-05-07T17:32:23;6.38;;;4.60;;
67191;SDS011;54120;53.504;49.426;2023-05-07T17:34:53;13.70;;;5.47;;
67191;SDS011;54120;53.504;49.426;2023-05-07T17:43:51;9.45;;;4.97;;
67191;SDS011;54120;53.504;49.426;2023-05-07T17:46:25;8.40;;;4.95;;
67191;SDS011;54120;53.504;49.426;2023-05-07T17:48:53;8.40;;;4.82;;
67191;SDS011;54120;53.504;49.426;2023-05-07T17:51:27;9.10;;;5.20;;
67191;SDS011;54120;53.504;49.426;2023-05-07T17:57:09;10.27;;;5.20;;
67191;SDS011;54120;53.504;49.426;2023-05-07T18:11:07;9.50;;;5.00;;
67191;SDS011;54120;53.504;49.426;2023-05-07T18:13:37;12.75;;;5.18;;
67191;SDS011;54120;53.504;49.426;2023-05-07T18:16:12;10.00;;;6.00;;
67191;SDS011;54120;53.504;49.426;2023-05-07T18:21:44;11.57;;;5.47;;
67191;SDS011;54120;53.504;49.426;2023-05-07T18:24:21;10.68;;;6.30;;
67191;SDS011;54120;53.504;49.426;2023-05-07T18:30:05;8.85;;;5.50;;
67191;SDS011;54120;53.504;49.426;2023-05-07T18:32:40;10.73;;;5.80;;
67191;SDS011;54120;53.504;49.426;2023-05-07T18:35:10;10.85;;;5.80;;
67191;SDS011;54120;53.504;49.426;2023-05-07T18:40:25;9.80;;;4.90;;
67191;SDS011;54120;53.504;49.426;2023-05-07T18:42:53;10.60;;;5.47;;
67191;SDS011;54120;53.504;49.426;2023-05-07T18:52:03;12.52;;;4.35;;
67191;SDS011;54120;53.504;49.426;2023-05-07T18:54:31;7.80;;;5.05;;
67191;SDS011;54120;53.504;49.426;2023-05-07T19:00:08;15.35;;;5.10;;
67191;SDS011;54120;53.504;49.426;2023-05-07T19:05:30;9.40;;;4.80;;
67191;SDS011;54120;53.504;49.426;2023-05-07T19:08:05;13.20;;;6.00;;
67191;SDS011;54120;53.504;49.426;2023-05-07T19:10:32;13.70;;;5.22;;